Strona główna
METAR-TAF:

METAR-TAF

Lotnisko :

North Central State Airport

Pawtucket, Rhode Island, Stany Zjednoczone

Szerokość geograficzna: 41-55N, Długość geograficzna: 071-30W, wysokość: 134 m

Aktualna obserwacja pogody

Raport powstał 17 minut temu, godzina 19:56 UTC
Wiatr 9 kt od północny wschód
Temperatura 10°C
Wilgotność 57%
Ciśnienie 1016 hPa
Widzialność: 16.1 km
Rozproszone chmury na wysokości 3300 ft

METAR: KSFZ 041956Z AUTO 04009KT 10SM SCT033 10/02 A2999 RMK AO2 SLP102 T01000022

czas: 16:13 (20:13 UTC)


TAF: brakujący

Obserwacja i prognoza pogody dla ponad 4000 lotnisk (raport METAR i TAF).

Dostępne stacje oznaczono żółtymi i czerwonymi punktami na mapie.

Najedź kursorem aby zobaczyć nazwę stacji.

Kliknij aby zobaczyć obserwacje i prognozy pogody.

Aby zmienić mapę: kliknij na zielony przycisk z czarnym krzyżykiem, aby powiększyć; na zielony przycisk z myślnikiem, aby pomniejszyć; na zielone strzałki, aby przejść do map sąsiednich.


METAR-TAF: